createdAt,value
2022-08-07T00:01:12.511Z,66.53
2022-08-07T00:02:40.017Z,67.03
2022-08-07T00:08:25.746Z,67.84
2022-08-07T00:10:18.996Z,67.43
2022-08-07T00:12:57.887Z,67.43
2022-08-07T00:14:51.059Z,67.43
2022-08-07T00:16:27.863Z,67.54
2022-08-07T00:19:21.535Z,67.87
2022-08-07T00:21:56.944Z,68.07
2022-08-07T00:24:14.620Z,67.77
2022-08-07T00:25:43.676Z,67.77
2022-08-07T00:27:14.003Z,68.27
2022-08-07T00:28:45.929Z,68.27
2022-08-07T00:30:26.423Z,68.27
2022-08-07T00:35:36.695Z,68.37
2022-08-07T00:38:32.039Z,68.61
2022-08-07T00:40:00.989Z,69.08
2022-08-07T00:44:24.258Z,69.21
2022-08-07T00:46:22.455Z,69.42
2022-08-07T00:48:07.593Z,68.81
2022-08-07T00:50:19.006Z,69.48
2022-08-07T00:52:48.846Z,69.92
2022-08-07T00:54:19.599Z,69.31
2022-08-07T00:59:09.231Z,69.92
2022-08-07T01:01:07.222Z,69.31
2022-08-07T01:04:32.609Z,69.72
2022-08-07T01:06:01.396Z,69.92
2022-08-07T01:10:56.359Z,69.92
2022-08-07T01:12:29.628Z,69.82
2022-08-07T01:13:56.036Z,69.85
2022-08-07T01:15:22.575Z,69.62
2022-08-07T01:16:52.454Z,69.92
2022-08-07T01:18:21.462Z,70.15
2022-08-07T01:22:22.745Z,70.36
2022-08-07T01:23:46.713Z,69.95
2022-08-07T01:25:55.573Z,70.36
2022-08-07T01:27:29.435Z,70.46
2022-08-07T01:29:13.128Z,70.06
2022-08-07T01:31:42.465Z,70.15
2022-08-07T01:33:09.466Z,70.36
2022-08-07T01:34:38.442Z,70.66
2022-08-07T01:37:05.517Z,70.66
2022-08-07T01:39:40.735Z,70.56
2022-08-07T01:41:02.728Z,70.36
2022-08-07T01:42:38.777Z,70.79
2022-08-07T01:44:01.795Z,70.89
2022-08-07T01:45:59.971Z,70.96
2022-08-07T01:48:20.560Z,70.89
2022-08-07T01:52:03.678Z,71.20
2022-08-07T01:54:11.994Z,71.10
2022-08-07T01:55:52.273Z,71.10
2022-08-07T01:57:24.723Z,70.69
2022-08-07T01:58:50.037Z,70.79
2022-08-07T02:00:19.073Z,70.89
2022-08-07T02:03:18.136Z,71.20
2022-08-07T02:04:55.787Z,71.00
2022-08-07T02:07:14.390Z,71.20
2022-08-07T02:08:43.730Z,71.40
2022-08-07T02:10:42.148Z,71.40
2022-08-07T02:12:10.500Z,71.44
2022-08-07T02:13:57.218Z,71.20
2022-08-07T02:15:10.503Z,71.40
2022-08-07T02:17:37.963Z,71.50
2022-08-07T02:20:34.075Z,71.60
2022-08-07T02:22:32.075Z,71.64
2022-08-07T02:26:10.405Z,71.44
2022-08-07T02:26:58.286Z,71.64
2022-08-07T02:29:55.111Z,71.53
2022-08-07T02:32:23.488Z,72.04
2022-08-07T02:35:20.220Z,71.94
2022-08-07T02:36:47.819Z,71.94
2022-08-07T02:38:56.561Z,71.73
2022-08-07T02:40:31.003Z,71.64
2022-08-07T02:41:50.800Z,71.53
2022-08-07T02:44:13.927Z,71.03
2022-08-07T02:45:59.297Z,71.03
2022-08-07T02:50:07.126Z,71.23
2022-08-07T02:52:05.299Z,71.47
2022-08-07T02:53:38.493Z,71.67
2022-08-07T02:56:02.291Z,71.97
2022-08-07T02:58:00.787Z,71.67
2022-08-07T03:00:27.829Z,71.13
2022-08-07T03:03:52.945Z,71.47
2022-08-07T03:05:51.275Z,71.67
2022-08-07T03:08:07.151Z,72.17
2022-08-07T03:09:52.004Z,72.17
2022-08-07T03:11:51.601Z,71.97
2022-08-07T03:13:49.728Z,72.17
2022-08-07T03:15:14.600Z,72.38
2022-08-07T03:16:44.603Z,72.17
2022-08-07T03:19:11.637Z,71.57
2022-08-07T03:20:40.609Z,71.47
2022-08-07T03:22:18.936Z,71.57
2022-08-07T03:24:18.234Z,72.17
2022-08-07T03:25:40.362Z,72.28
2022-08-07T03:27:09.055Z,72.17
2022-08-07T03:29:11.317Z,71.77
2022-08-07T03:31:08.599Z,71.57
2022-08-07T03:32:37.589Z,71.91
2022-08-07T03:34:06.555Z,71.80
2022-08-07T03:37:12.399Z,72.51
2022-08-07T03:39:05.550Z,72.72
2022-08-07T03:40:36.331Z,72.61
2022-08-07T03:42:30.180Z,72.72
2022-08-07T03:43:59.158Z,72.61
2022-08-07T03:45:57.155Z,72.51
2022-08-07T03:47:27.809Z,72.31
2022-08-07T03:49:53.714Z,72.21
2022-08-07T03:51:22.345Z,72.11
2022-08-07T03:52:52.449Z,72.61
2022-08-07T03:54:36.279Z,72.61
2022-08-07T03:57:03.319Z,72.92
2022-08-07T04:00:01.776Z,73.05
2022-08-07T04:01:16.703Z,72.92
2022-08-07T04:04:13.627Z,72.85
2022-08-07T04:06:41.001Z,73.15
2022-08-07T04:08:09.997Z,73.36
2022-08-07T04:09:45.066Z,73.46
2022-08-07T04:12:25.413Z,73.46
2022-08-07T04:13:08.090Z,73.05
2022-08-07T04:14:43.751Z,73.15
2022-08-07T04:16:10.847Z,72.75
2022-08-07T04:18:31.303Z,72.95
2022-08-07T04:19:14.772Z,72.75
2022-08-07T04:20:37.403Z,72.95
2022-08-07T04:22:13.343Z,72.65
2022-08-07T04:23:43.265Z,72.44
2022-08-07T04:26:05.658Z,72.68
2022-08-07T04:27:36.202Z,72.58
2022-08-07T04:29:04.725Z,73.19
2022-08-07T04:30:39.613Z,73.29
2022-08-07T04:32:34.771Z,73.09
2022-08-07T04:34:01.676Z,73.36
2022-08-07T04:35:35.141Z,73.49
2022-08-07T04:37:00.652Z,73.36
2022-08-07T04:38:29.610Z,73.25
2022-08-07T04:40:57.014Z,73.46
2022-08-07T04:42:54.809Z,73.05
2022-08-07T04:46:01.199Z,73.25
2022-08-07T04:50:45.404Z,73.56
2022-08-07T04:53:27.641Z,73.46
2022-08-07T04:54:43.563Z,73.46
2022-08-07T04:58:11.901Z,73.36
2022-08-07T04:58:12.861Z,73.56
2022-08-07T05:00:10.907Z,73.25
2022-08-07T05:02:16.644Z,73.69
2022-08-07T05:04:06.566Z,73.59
2022-08-07T05:05:11.862Z,73.66
2022-08-07T05:07:20.431Z,73.46
2022-08-07T05:08:59.307Z,73.46
2022-08-07T05:10:11.136Z,73.36
2022-08-07T05:11:58.027Z,73.46
2022-08-07T05:14:27.715Z,73.56
2022-08-07T05:15:08.422Z,73.56
2022-08-07T05:16:44.031Z,73.59
2022-08-07T05:18:09.349Z,73.80
2022-08-07T05:20:34.555Z,74.00
2022-08-07T05:22:04.777Z,73.96
2022-08-07T05:23:35.701Z,73.76
2022-08-07T05:25:36.604Z,73.90
2022-08-07T05:27:00.684Z,74.10
2022-08-07T05:29:38.884Z,74.51
2022-08-07T05:31:55.751Z,74.60
2022-08-07T05:33:24.794Z,74.20
2022-08-07T05:35:33.497Z,73.86
2022-08-07T05:39:01.140Z,74.07
2022-08-07T05:40:17.472Z,74.16
2022-08-07T05:42:02.636Z,74.16
2022-08-07T05:44:29.477Z,74.16
2022-08-07T05:46:20.272Z,74.37
2022-08-07T05:48:19.282Z,74.33
2022-08-07T05:49:49.288Z,74.03
2022-08-07T05:51:18.464Z,74.03
2022-08-07T05:54:09.649Z,73.90
2022-08-07T05:55:19.857Z,74.10
2022-08-07T05:56:51.329Z,74.10
2022-08-07T05:58:49.236Z,74.10
2022-08-07T06:00:18.241Z,74.10
2022-08-07T06:01:46.590Z,73.99
2022-08-07T06:03:53.487Z,74.30
2022-08-07T06:05:48.937Z,73.86
2022-08-07T06:08:44.165Z,73.66
2022-08-07T06:10:15.081Z,73.42
2022-08-07T06:12:37.882Z,73.11
2022-08-07T06:14:12.957Z,72.71
2022-08-07T06:15:39.101Z,72.48
2022-08-07T06:17:38.094Z,72.38
2022-08-07T06:19:06.570Z,72.38
2022-08-07T06:22:15.984Z,72.38
2022-08-07T06:23:46.268Z,72.48
2022-08-07T06:25:01.693Z,72.78
2022-08-07T06:27:59.906Z,72.58
2022-08-07T06:30:35.326Z,72.27
2022-08-07T06:31:55.414Z,72.54
2022-08-07T06:34:53.561Z,72.14
2022-08-07T06:37:21.478Z,72.11
2022-08-07T06:38:51.262Z,71.60
2022-08-07T06:41:17.907Z,72.17
2022-08-07T06:42:47.878Z,71.77
2022-08-07T06:44:51.143Z,71.47
2022-08-07T06:46:31.101Z,70.62
2022-08-07T06:48:15.380Z,71.13
2022-08-07T06:49:50.874Z,70.83
2022-08-07T06:51:49.869Z,69.92
2022-08-07T06:53:18.796Z,69.62
2022-08-07T06:56:31.098Z,69.21
2022-08-07T06:58:00.336Z,69.79
2022-08-07T07:00:17.477Z,69.49
2022-08-07T07:00:59.198Z,69.29
2022-08-07T07:06:02.408Z,68.58
2022-08-07T07:07:00.333Z,68.78
2022-08-07T07:08:25.719Z,68.35
2022-08-07T07:12:07.790Z,68.35
2022-08-07T07:12:53.330Z,68.35
2022-08-07T07:14:47.425Z,68.75
2022-08-07T07:16:19.562Z,68.62
2022-08-07T07:17:45.613Z,68.62
2022-08-07T07:19:57.315Z,68.71
2022-08-07T07:21:19.751Z,67.81
2022-08-07T07:24:05.371Z,67.51
2022-08-07T07:24:18.454Z,66.60
2022-08-07T07:26:51.823Z,67.31
2022-08-07T07:28:42.657Z,66.80
2022-08-07T07:30:32.561Z,67.27
2022-08-07T07:33:40.987Z,67.98
2022-08-07T07:36:37.108Z,67.38
2022-08-07T07:38:06.453Z,67.24
2022-08-07T07:39:45.459Z,67.14
2022-08-07T07:42:02.255Z,66.31
2022-08-07T07:43:11.683Z,65.80
2022-08-07T07:45:03.137Z,65.00
2022-08-07T07:47:30.220Z,65.50
2022-08-07T07:49:08.983Z,64.60
2022-08-07T07:50:59.711Z,63.79
2022-08-07T07:52:28.852Z,63.67
2022-08-07T07:54:26.692Z,62.86
2022-08-07T07:56:00.574Z,62.96
2022-08-07T07:57:51.862Z,63.67
2022-08-07T07:59:54.068Z,62.46
2022-08-07T08:02:22.673Z,62.46
2022-08-07T08:04:10.074Z,63.96
2022-08-07T08:05:22.317Z,64.67
2022-08-07T08:06:52.136Z,63.06
2022-08-07T08:08:32.326Z,62.03
2022-08-07T08:09:52.194Z,62.73
2022-08-07T08:11:59.750Z,62.33
2022-08-07T08:13:18.336Z,61.83
2022-08-07T08:14:47.305Z,62.20
2022-08-07T08:16:16.297Z,60.89
2022-08-07T08:17:58.221Z,61.33
2022-08-07T08:20:17.494Z,62.20
2022-08-07T08:21:59.085Z,62.60
2022-08-07T08:24:35.038Z,62.00
2022-08-07T08:26:11.243Z,62.00
2022-08-07T08:27:40.228Z,61.60
2022-08-07T08:29:09.264Z,62.67
2022-08-07T08:30:42.585Z,62.57
2022-08-07T08:32:38.514Z,61.77
2022-08-07T08:34:06.308Z,61.17
2022-08-07T08:35:42.939Z,60.86
2022-08-07T08:37:09.931Z,60.44
2022-08-07T08:38:41.163Z,61.24
2022-08-07T08:40:05.406Z,61.94
2022-08-07T08:41:57.329Z,62.34
2022-08-07T08:43:05.275Z,60.14
2022-08-07T08:44:37.277Z,61.81
2022-08-07T08:46:33.276Z,61.51
2022-08-07T08:49:00.542Z,60.31
2022-08-07T08:50:58.627Z,58.81
2022-08-07T08:52:32.305Z,58.61
2022-08-07T08:54:27.081Z,57.68
2022-08-07T08:55:58.595Z,58.07
2022-08-07T08:57:54.139Z,57.37
2022-08-07T08:59:23.206Z,57.57
2022-08-07T09:01:21.611Z,57.68
2022-08-07T09:02:52.552Z,56.67
2022-08-07T09:04:49.357Z,56.57
2022-08-07T09:06:18.075Z,56.98
2022-08-07T09:07:23.065Z,56.07
2022-08-07T09:08:24.218Z,55.98
2022-08-07T09:09:20.677Z,55.37
2022-08-07T09:10:48.402Z,55.65
2022-08-07T09:13:15.307Z,55.85
2022-08-07T09:16:25.229Z,55.24
2022-08-07T09:16:43.794Z,55.85
2022-08-07T09:18:41.797Z,54.85
2022-08-07T09:20:34.663Z,55.44
2022-08-07T09:24:33.018Z,54.44
2022-08-07T09:27:09.159Z,55.92
2022-08-07T09:30:06.698Z,54.72
2022-08-07T09:30:33.158Z,54.22
2022-08-07T09:32:02.188Z,55.92
2022-08-07T09:33:53.118Z,55.62
2022-08-07T09:36:57.457Z,55.02
2022-08-07T09:39:53.739Z,53.82
2022-08-07T09:40:54.694Z,56.32
2022-08-07T09:42:25.084Z,55.79
2022-08-07T09:44:06.051Z,54.69
2022-08-07T09:47:49.423Z,55.87
2022-08-07T09:48:00.076Z,54.77
2022-08-07T09:50:01.591Z,54.17
2022-08-07T09:52:16.278Z,54.57
2022-08-07T09:53:19.297Z,54.27
2022-08-07T09:55:29.665Z,52.87
2022-08-07T09:58:15.641Z,54.06
2022-08-07T10:00:00.401Z,55.66
2022-08-07T10:02:55.285Z,52.57
2022-08-07T10:04:14.934Z,52.57
2022-08-07T10:05:59.484Z,53.44
2022-08-07T10:08:09.453Z,53.54
2022-08-07T10:09:59.329Z,54.54
2022-08-07T10:12:39.686Z,53.94
2022-08-07T10:14:05.122Z,53.81
2022-08-07T10:16:03.133Z,55.02
2022-08-07T10:18:31.474Z,53.92
2022-08-07T10:20:30.606Z,52.72
2022-08-07T10:22:33.306Z,52.32
2022-08-07T10:24:25.931Z,51.72
2022-08-07T10:26:53.705Z,52.22
2022-08-07T10:28:21.936Z,51.04
2022-08-07T10:29:51.677Z,52.02
2022-08-07T10:31:20.200Z,51.04
2022-08-07T10:32:52.439Z,50.95
2022-08-07T10:34:38.881Z,50.84
2022-08-07T10:36:37.629Z,51.64
2022-08-07T10:38:21.653Z,51.54
2022-08-07T10:39:41.699Z,52.55
2022-08-07T10:41:47.241Z,53.52
2022-08-07T10:43:35.088Z,54.89
2022-08-07T10:46:30.555Z,53.69
2022-08-07T10:48:03.303Z,51.97
2022-08-07T10:49:49.854Z,51.97
2022-08-07T10:52:01.877Z,51.20
2022-08-07T10:53:26.899Z,52.19
2022-08-07T10:55:32.444Z,52.67
2022-08-07T10:56:55.500Z,53.66
2022-08-07T10:58:59.969Z,54.36
2022-08-07T11:00:36.649Z,51.87
2022-08-07T11:02:05.388Z,51.05
2022-08-07T11:03:23.113Z,51.07
2022-08-07T11:04:53.120Z,52.55
2022-08-07T11:06:22.197Z,51.05
2022-08-07T11:08:20.385Z,50.55
2022-08-07T11:10:09.713Z,48.85
2022-08-07T11:11:20.256Z,50.25
2022-08-07T11:14:42.510Z,49.73
2022-08-07T11:14:59.728Z,50.52
2022-08-07T11:16:51.040Z,48.83
2022-08-07T11:18:17.803Z,51.03
2022-08-07T11:19:45.693Z,48.93
2022-08-07T11:21:14.622Z,50.62
2022-08-07T11:22:46.210Z,48.63
2022-08-07T11:24:13.218Z,49.05
2022-08-07T11:25:49.864Z,48.75
2022-08-07T11:28:15.485Z,48.75
2022-08-07T11:30:17.625Z,50.05
2022-08-07T11:32:08.772Z,48.85
2022-08-07T11:34:36.045Z,51.15
2022-08-07T11:36:09.958Z,51.35
2022-08-07T11:40:03.490Z,48.46
2022-08-07T11:42:00.186Z,47.86
2022-08-07T11:43:41.627Z,47.86
2022-08-07T11:45:35.561Z,48.16
2022-08-07T11:49:27.649Z,48.85
2022-08-07T11:50:32.899Z,47.45
2022-08-07T11:52:29.479Z,48.46
2022-08-07T11:54:01.078Z,48.46
2022-08-07T11:56:09.191Z,48.55
2022-08-07T11:57:58.155Z,47.86
2022-08-07T11:59:22.196Z,48.63
2022-08-07T12:01:00.176Z,47.83
2022-08-07T12:02:30.480Z,47.83
2022-08-07T12:05:48.959Z,47.61
2022-08-07T12:07:45.320Z,47.21
2022-08-07T12:09:16.535Z,48.71
2022-08-07T12:11:43.414Z,47.61
2022-08-07T12:13:52.703Z,49.51
2022-08-07T12:15:35.752Z,49.90
2022-08-07T12:16:51.756Z,48.91
2022-08-07T12:19:21.322Z,48.91
2022-08-07T12:20:49.226Z,47.74
2022-08-07T12:22:39.401Z,48.61
2022-08-07T12:24:07.721Z,47.41
2022-08-07T12:26:00.453Z,47.51
2022-08-07T12:28:14.672Z,48.80
2022-08-07T12:31:10.389Z,48.50
2022-08-07T12:33:23.098Z,46.69
2022-08-07T12:35:37.962Z,46.20
2022-08-07T12:38:43.026Z,47.59
2022-08-07T12:40:50.191Z,46.30
2022-08-07T12:43:01.724Z,46.39
2022-08-07T12:44:30.201Z,46.20
2022-08-07T12:46:32.532Z,46.67
2022-08-07T12:49:48.892Z,46.97
2022-08-07T12:51:01.165Z,47.17
2022-08-07T12:52:33.870Z,46.67
2022-08-07T12:55:41.086Z,46.77
2022-08-07T12:56:56.390Z,46.67
2022-08-07T12:58:28.090Z,47.07
2022-08-07T13:00:32.750Z,47.47
2022-08-07T13:01:54.678Z,48.56
2022-08-07T13:03:51.318Z,47.94
2022-08-07T13:05:01.633Z,47.25
2022-08-07T13:06:27.058Z,45.78
2022-08-07T13:08:21.991Z,45.45
2022-08-07T13:12:03.415Z,45.85
2022-08-07T13:13:47.969Z,45.36
2022-08-07T13:14:51.471Z,44.46
2022-08-07T13:16:15.806Z,45.85
2022-08-07T13:18:42.864Z,45.55
2022-08-07T13:20:11.849Z,47.25
2022-08-07T13:21:11.846Z,46.05
2022-08-07T13:22:12.662Z,45.15
2022-08-07T13:24:44.002Z,46.25
2022-08-07T13:28:13.003Z,46.05
2022-08-07T13:29:36.522Z,44.56
2022-08-07T13:31:13.034Z,44.06
2022-08-07T13:32:37.632Z,43.29
2022-08-07T13:34:30.213Z,44.16
2022-08-07T13:35:59.770Z,45.26
2022-08-07T13:37:35.510Z,44.85
2022-08-07T13:40:33.785Z,44.24
2022-08-07T13:41:05.100Z,44.14
2022-08-07T13:42:38.885Z,43.15
2022-08-07T13:44:34.544Z,43.54
2022-08-07T13:46:33.400Z,43.74
2022-08-07T13:48:06.604Z,43.15
2022-08-07T13:50:33.459Z,44.64
2022-08-07T13:52:05.000Z,44.36
2022-08-07T13:54:28.011Z,44.34
2022-08-07T13:56:36.000Z,45.93
2022-08-07T13:59:34.313Z,46.65
2022-08-07T14:02:13.406Z,46.35
2022-08-07T14:04:07.602Z,46.05
2022-08-07T14:05:41.441Z,47.94
2022-08-07T14:07:10.741Z,49.04
2022-08-07T14:09:08.496Z,48.61
2022-08-07T14:10:42.388Z,47.02
2022-08-07T14:12:10.629Z,46.83
2022-08-07T14:13:37.462Z,48.41
2022-08-07T14:15:07.439Z,45.23
2022-08-07T14:17:13.233Z,44.54
2022-08-07T14:18:35.695Z,46.23
2022-08-07T14:20:43.261Z,46.33
2022-08-07T14:22:11.657Z,46.13
2022-08-07T14:24:33.473Z,44.93
2022-08-07T14:26:31.929Z,45.03
2022-08-07T14:28:33.262Z,45.73
2022-08-07T14:30:06.699Z,45.03
2022-08-07T14:31:42.500Z,45.03
2022-08-07T14:32:58.038Z,45.14
2022-08-07T14:35:56.983Z,45.23
2022-08-07T14:37:39.070Z,44.14
2022-08-07T14:38:55.944Z,44.84
2022-08-07T14:40:27.010Z,45.43
2022-08-07T14:42:18.828Z,45.23
2022-08-07T14:43:55.225Z,45.43
2022-08-07T14:44:54.220Z,44.93
2022-08-07T14:50:19.789Z,47.60
2022-08-07T14:52:04.970Z,46.20
2022-08-07T14:56:15.247Z,46.90
2022-08-07T15:00:03.659Z,46.20
2022-08-07T15:01:21.768Z,45.11
2022-08-07T15:02:44.302Z,46.01
2022-08-07T15:04:14.313Z,45.71
2022-08-07T15:05:54.317Z,46.20
2022-08-07T15:08:47.488Z,45.93
2022-08-07T15:11:08.374Z,46.53
2022-08-07T15:15:07.527Z,47.94
2022-08-07T15:17:04.248Z,46.35
2022-08-07T15:20:33.339Z,47.02
2022-08-07T15:22:04.024Z,46.62
2022-08-07T15:27:23.976Z,47.32
2022-08-07T15:28:58.421Z,46.72
2022-08-07T15:33:49.011Z,46.05
2022-08-07T15:35:19.087Z,46.55
2022-08-07T15:38:30.721Z,46.45
2022-08-07T15:43:33.227Z,47.66
2022-08-07T15:44:51.998Z,48.76
2022-08-07T15:46:52.050Z,46.77
2022-08-07T15:49:03.653Z,47.47
2022-08-07T15:51:07.824Z,47.27
2022-08-07T15:52:40.383Z,47.37
2022-08-07T15:54:11.922Z,47.66
2022-08-07T15:56:07.479Z,47.27
2022-08-07T15:57:47.911Z,47.17
2022-08-07T15:59:39.858Z,47.77
2022-08-07T16:01:05.801Z,46.87
2022-08-07T16:03:03.892Z,46.97
2022-08-07T16:04:32.860Z,47.56
2022-08-07T16:06:59.867Z,47.09
2022-08-07T16:08:37.728Z,48.08
2022-08-07T16:11:55.117Z,48.38
2022-08-07T16:13:59.212Z,47.59
2022-08-07T16:16:48.249Z,47.99
2022-08-07T16:18:02.917Z,47.79
2022-08-07T16:19:42.989Z,47.89
2022-08-07T16:22:03.472Z,48.49
2022-08-07T16:25:23.410Z,48.38
2022-08-07T16:30:06.767Z,48.41
2022-08-07T16:30:43.396Z,48.68
2022-08-07T16:32:32.924Z,48.91
2022-08-07T16:35:59.049Z,48.01
2022-08-07T16:39:20.957Z,48.31
2022-08-07T16:42:43.314Z,48.41
2022-08-07T16:45:13.982Z,48.91
2022-08-07T16:47:02.824Z,48.91
2022-08-07T16:48:13.443Z,49.70
2022-08-07T16:50:48.454Z,49.01
2022-08-07T16:52:57.379Z,49.10
2022-08-07T16:54:09.406Z,49.10
2022-08-07T16:55:47.446Z,48.71
2022-08-07T16:57:15.577Z,49.40
2022-08-07T17:00:34.312Z,48.61
2022-08-07T17:02:03.572Z,48.61
2022-08-07T17:06:29.405Z,48.91
2022-08-07T17:07:58.162Z,48.61
2022-08-07T17:10:54.829Z,48.71
2022-08-07T17:12:36.680Z,48.50
2022-08-07T17:14:18.368Z,48.41
2022-08-07T17:16:55.863Z,49.30
2022-08-07T17:18:47.640Z,48.61
2022-08-07T17:20:46.676Z,50.00
2022-08-07T17:22:44.600Z,48.01
2022-08-07T17:24:14.349Z,48.61
2022-08-07T17:25:51.336Z,48.50
2022-08-07T17:28:40.401Z,48.43
2022-08-07T17:30:18.220Z,48.53
2022-08-07T17:32:52.315Z,49.23
2022-08-07T17:34:34.801Z,48.63
2022-08-07T17:35:54.731Z,48.33
2022-08-07T17:37:14.296Z,49.23
2022-08-07T17:40:08.958Z,48.73
2022-08-07T17:46:54.683Z,49.23
2022-08-07T17:48:31.215Z,48.93
2022-08-07T17:50:51.772Z,48.63
2022-08-07T17:52:50.060Z,48.73
2022-08-07T17:56:00.786Z,49.93
2022-08-07T17:57:56.687Z,49.45
2022-08-07T18:00:33.312Z,48.95
2022-08-07T18:02:56.370Z,48.85
2022-08-07T18:06:38.130Z,48.95
2022-08-07T18:10:05.179Z,49.15
2022-08-07T18:12:07.107Z,48.55
2022-08-07T18:13:42.683Z,48.65
2022-08-07T18:15:11.994Z,48.65
2022-08-07T18:18:46.013Z,50.27
2022-08-07T18:21:38.140Z,49.98
2022-08-07T18:22:35.512Z,49.48
2022-08-07T18:24:07.107Z,49.98
2022-08-07T18:26:31.925Z,50.17
2022-08-07T18:28:00.881Z,49.08
2022-08-07T18:30:08.019Z,50.47
2022-08-07T18:31:33.789Z,50.97
2022-08-07T18:33:27.905Z,52.39
2022-08-07T18:35:01.602Z,52.00
2022-08-07T18:36:33.227Z,50.90
2022-08-07T18:38:55.492Z,51.89
2022-08-07T18:40:07.888Z,51.79
2022-08-07T18:41:07.956Z,51.10
2022-08-07T18:42:56.291Z,52.00
2022-08-07T18:47:22.684Z,52.72
2022-08-07T18:52:38.064Z,53.42
2022-08-07T18:53:42.846Z,54.34
2022-08-07T18:55:41.076Z,54.24
2022-08-07T18:59:47.846Z,54.14
2022-08-07T19:01:06.463Z,54.34
2022-08-07T19:04:47.712Z,55.24
2022-08-07T19:06:59.705Z,56.14
2022-08-07T19:08:28.745Z,56.16
2022-08-07T19:09:59.191Z,56.57
2022-08-07T19:11:35.590Z,56.77
2022-08-07T19:13:55.037Z,57.17
2022-08-07T19:17:04.090Z,57.57
2022-08-07T19:18:50.595Z,58.09
2022-08-07T19:21:08.492Z,57.79
2022-08-07T19:22:18.657Z,58.19
2022-08-07T19:23:57.344Z,58.49
2022-08-07T19:26:24.611Z,58.39
2022-08-07T19:28:57.178Z,58.69
2022-08-07T19:31:01.710Z,58.42
2022-08-07T19:31:03.258Z,58.12
2022-08-07T19:32:27.225Z,58.22
2022-08-07T19:36:12.485Z,58.82
2022-08-07T19:38:15.767Z,59.22
2022-08-07T19:39:57.603Z,58.62
2022-08-07T19:42:24.574Z,59.12
2022-08-07T19:44:21.307Z,59.45
2022-08-07T19:46:10.576Z,59.55
2022-08-07T19:47:36.487Z,59.85
2022-08-07T19:49:58.603Z,59.85
2022-08-07T19:51:51.900Z,59.75
2022-08-07T19:54:35.555Z,60.05
2022-08-07T19:55:02.935Z,59.55
2022-08-07T19:58:03.351Z,60.15
2022-08-07T19:59:40.992Z,59.45
2022-08-07T20:01:52.840Z,59.25
2022-08-07T20:03:35.155Z,59.55
2022-08-07T20:05:28.127Z,59.25
2022-08-07T20:07:28.269Z,59.85
2022-08-07T20:10:35.780Z,59.48
2022-08-07T20:10:54.369Z,59.58
2022-08-07T20:12:34.689Z,59.68
2022-08-07T20:14:23.221Z,60.28
2022-08-07T20:18:01.566Z,60.08
2022-08-07T20:19:17.774Z,59.38
2022-08-07T20:23:40.631Z,60.38
2022-08-07T20:25:12.885Z,60.58
2022-08-07T20:26:45.019Z,60.18
2022-08-07T20:28:40.438Z,60.08
2022-08-07T20:30:11.188Z,60.01
2022-08-07T20:32:40.409Z,59.91
2022-08-07T20:34:50.114Z,60.41
2022-08-07T20:36:34.591Z,60.81
2022-08-07T20:38:04.273Z,60.61
2022-08-07T20:40:05.066Z,61.01
2022-08-07T20:43:57.602Z,61.51
2022-08-07T20:46:28.293Z,61.71
2022-08-07T20:50:49.549Z,61.94
2022-08-07T20:52:17.945Z,61.84
2022-08-07T20:54:29.998Z,61.84
2022-08-07T20:56:16.308Z,61.64
2022-08-07T20:58:19.501Z,62.44
2022-08-07T21:01:45.971Z,62.37
2022-08-07T21:03:11.097Z,62.37
2022-08-07T21:05:10.184Z,62.57
2022-08-07T21:06:42.392Z,62.87
2022-08-07T21:08:12.568Z,62.67
2022-08-07T21:09:52.723Z,62.67
2022-08-07T21:11:10.787Z,62.97
2022-08-07T21:14:33.060Z,62.67
2022-08-07T21:18:04.020Z,63.00
2022-08-07T21:20:30.414Z,63.31
2022-08-07T21:21:57.402Z,63.20
2022-08-07T21:24:49.078Z,63.60
2022-08-07T21:27:47.315Z,63.70
2022-08-07T21:29:42.587Z,63.70
2022-08-07T21:33:08.553Z,63.81
2022-08-07T21:34:48.747Z,64.31
2022-08-07T21:37:05.705Z,63.81
2022-08-07T21:38:34.732Z,63.73
2022-08-07T21:40:36.163Z,64.04
2022-08-07T21:42:04.897Z,63.73
2022-08-07T21:44:01.778Z,63.93
2022-08-07T21:46:11.296Z,63.93
2022-08-07T21:47:30.015Z,63.93
2022-08-07T21:52:33.125Z,64.04
2022-08-07T21:55:28.282Z,64.04
2022-08-07T21:57:39.709Z,64.24
2022-08-07T22:00:23.109Z,64.14
2022-08-07T22:05:09.108Z,65.04
2022-08-07T22:06:45.271Z,64.43
2022-08-07T22:10:35.439Z,65.34
2022-08-07T22:12:05.831Z,65.04
2022-08-07T22:14:36.290Z,65.54
2022-08-07T22:16:43.303Z,65.54
2022-08-07T22:18:00.068Z,65.64
2022-08-07T22:19:30.006Z,65.74
2022-08-07T22:22:54.909Z,66.05
2022-08-07T22:24:23.839Z,65.97
2022-08-07T22:27:21.258Z,66.38
2022-08-07T22:29:20.235Z,66.78
2022-08-07T22:34:49.725Z,67.08
2022-08-07T22:36:12.987Z,67.28
2022-08-07T22:38:03.950Z,66.98
2022-08-07T22:39:12.020Z,67.58
2022-08-07T22:40:40.953Z,67.48
2022-08-07T22:43:08.003Z,67.48
2022-08-07T22:45:06.029Z,67.88
2022-08-07T22:50:33.635Z,68.38
2022-08-07T22:54:23.187Z,68.62
2022-08-07T22:56:21.190Z,68.72
2022-08-07T22:58:48.300Z,69.02
2022-08-07T23:01:16.849Z,69.02
2022-08-07T23:02:46.218Z,69.22
2022-08-07T23:04:58.353Z,69.32
2022-08-07T23:07:42.168Z,69.32
2022-08-07T23:10:04.786Z,69.42
2022-08-07T23:10:41.924Z,69.62
2022-08-07T23:12:08.968Z,69.62
2022-08-07T23:14:36.439Z,69.92
2022-08-07T23:16:44.607Z,69.72
2022-08-07T23:18:04.200Z,69.82
2022-08-07T23:19:47.816Z,70.03
2022-08-07T23:21:03.191Z,69.92
2022-08-07T23:22:32.301Z,70.03
2022-08-07T23:24:30.138Z,70.32
2022-08-07T23:25:59.263Z,70.23
2022-08-07T23:27:34.338Z,70.23
2022-08-07T23:30:37.178Z,70.53
2022-08-07T23:32:48.656Z,70.36
2022-08-07T23:34:36.300Z,70.56
2022-08-07T23:34:38.243Z,70.76
2022-08-07T23:38:36.970Z,70.86
2022-08-07T23:40:20.461Z,70.76
2022-08-07T23:42:04.766Z,70.86
2022-08-07T23:44:17.450Z,71.16
2022-08-07T23:46:03.501Z,71.26
2022-08-07T23:47:48.171Z,71.26
2022-08-07T23:49:50.726Z,71.16
2022-08-07T23:53:02.038Z,71.36
2022-08-07T23:53:51.025Z,71.47
2022-08-07T23:55:53.075Z,71.60
